Portada
METAR-TAF:

METAR-TAF

Aeroports :

Harbin, Xina

latitud: 45-45N, longitud: 126-46E, altitud: 143 m

Observació

L'informe es va fer fa 19 minuts, a les 02:00 UTC
Vent 10 kt del Oest
Temperatura -8°C
Humitat 62%
Pressió 1022 hPa
Visibilitat 10 km o més
sense núvols per sota de 1500 mi sense presència de cumulonimbus.

METAR: ZYHB 160200Z 26005MPS CAVOK M08/M14 Q1022 NOSIG

Hora: 10:19 (02:19 UTC)

Pronòstic

L'informe es va fer fa 7 hores i 6 minuts, a les 19:13 UTC
Pronòstic vàlid del 16 a les 00 UTC al 16 a les 24 UTC
Vent 10 kt del Oest/Sud-Oest
Visibilitat: 6000 m
Escasses núvols a una alçada de 3300 ft

TAF: ZYHB 151913Z 1600/1624 25005MPS 6000 FEW033 TXM05/06Z TNM17/22Z

Observacions i pronòstics meteorològics de més de 4000 aeroports (METAR i TAF).

Les estacions disponibles són els punts grocs i vermells al mapa.

Posi el ratolí al punt desitjat per veure el nom de l'estació.

Feu clic per veure les observacions i els pronòstics meteorològics.

Per canviar el mapa: feu clic els botons verds amb una creu de color negre per apropar; al botó verd amb un guió per allunyar la imatge; o en les fletxes verdes per a mapes adjacents.


METAR-TAF: